createdAt,value
2022-12-03T00:01:22.071Z,98427.85
2022-12-03T00:03:50.186Z,98432.09
2022-12-03T00:06:18.353Z,98437.39
2022-12-03T00:08:46.657Z,98435.96
2022-12-03T00:11:14.669Z,98443.42
2022-12-03T00:13:42.693Z,98443.64
2022-12-03T00:16:11.203Z,98444.69
2022-12-03T00:18:39.219Z,98449.77
2022-12-03T00:21:07.645Z,98449.11
2022-12-03T00:23:41.555Z,98450.56
2022-12-03T00:26:10.477Z,98452.15
2022-12-03T00:28:39.044Z,98457.23
2022-12-03T00:31:07.107Z,98456.98
2022-12-03T00:33:35.278Z,98459.46
2022-12-03T00:36:04.318Z,98459.31
2022-12-03T00:38:32.239Z,98463.86
2022-12-03T00:41:00.343Z,98470.13
2022-12-03T00:43:28.298Z,98470.58
2022-12-03T00:45:56.401Z,98469.48
2022-12-03T00:48:24.568Z,98473.05
2022-12-03T00:50:52.894Z,98473.48
2022-12-03T00:53:21.139Z,98470.89
2022-12-03T00:55:50.807Z,98472.72
2022-12-03T00:58:19.366Z,98472.49
2022-12-03T01:00:48.479Z,98474.27
2022-12-03T01:03:17.540Z,98470.70
2022-12-03T01:05:45.578Z,98474.17
2022-12-03T01:08:13.737Z,98471.75
2022-12-03T01:10:41.948Z,98471.15
2022-12-03T01:13:10.191Z,98471.41
2022-12-03T01:15:38.701Z,98472.08
2022-12-03T01:18:06.826Z,98469.48
2022-12-03T01:20:36.520Z,98470.23
2022-12-03T01:23:05.329Z,98471.83
2022-12-03T01:25:33.503Z,98467.89
2022-12-03T01:28:01.561Z,98464.33
2022-12-03T01:30:29.423Z,98459.45
2022-12-03T01:32:57.346Z,98462.21
2022-12-03T01:35:25.497Z,98458.84
2022-12-03T01:37:53.493Z,98462.64
2022-12-03T01:40:22.085Z,98460.23
2022-12-03T01:42:50.097Z,98460.01
2022-12-03T01:45:23.816Z,98458.17
2022-12-03T01:47:51.961Z,98462.02
2022-12-03T01:50:33.264Z,98465.11
2022-12-03T01:53:04.700Z,98465.04
2022-12-03T01:55:32.906Z,98463.63
2022-12-03T01:58:02.397Z,98461.95
2022-12-03T02:00:31.018Z,98461.27
2022-12-03T02:03:11.495Z,98461.08
2022-12-03T02:05:39.433Z,98460.06
2022-12-03T02:08:30.734Z,98457.62
2022-12-03T02:11:09.151Z,98457.00
2022-12-03T02:13:37.972Z,98456.27
2022-12-03T02:16:06.669Z,98457.17
2022-12-03T02:18:35.651Z,98456.09
2022-12-03T02:21:15.729Z,98452.59
2022-12-03T02:23:44.392Z,98453.45
2022-12-03T02:26:12.499Z,98452.73
2022-12-03T02:28:40.914Z,98452.20
2022-12-03T02:31:09.096Z,98457.55
2022-12-03T02:33:37.248Z,98458.58
2022-12-03T02:36:05.655Z,98455.94
2022-12-03T02:38:35.869Z,98455.28
2022-12-03T02:41:08.852Z,98455.67
2022-12-03T02:43:37.146Z,98461.80
2022-12-03T02:46:07.448Z,98464.14
2022-12-03T02:48:38.793Z,98463.66
2022-12-03T02:51:10.463Z,98467.08
2022-12-03T02:53:44.630Z,98465.04
2022-12-03T02:56:17.127Z,98467.50
2022-12-03T02:58:48.908Z,98468.89
2022-12-03T03:01:18.099Z,98465.58
2022-12-03T03:03:48.824Z,98463.73
2022-12-03T03:06:19.595Z,98467.05
2022-12-03T03:08:49.051Z,98470.58
2022-12-03T03:11:17.047Z,98471.26
2022-12-03T03:13:45.030Z,98470.52
2022-12-03T03:16:13.114Z,98473.30
2022-12-03T03:18:41.595Z,98472.05
2022-12-03T03:21:09.756Z,98472.59
2022-12-03T03:23:37.892Z,98474.58
2022-12-03T03:26:08.939Z,98468.52
2022-12-03T03:28:44.833Z,98471.15
2022-12-03T03:31:15.482Z,98471.63
2022-12-03T03:33:47.078Z,98474.11
2022-12-03T03:36:16.747Z,98471.61
2022-12-03T03:38:45.061Z,98472.86
2022-12-03T03:41:14.631Z,98473.69
2022-12-03T03:43:44.377Z,98472.70
2022-12-03T03:46:13.936Z,98475.60
2022-12-03T03:48:43.900Z,98479.38
2022-12-03T03:51:13.134Z,98477.67
2022-12-03T03:53:45.524Z,98478.48
2022-12-03T03:56:14.926Z,98479.52
2022-12-03T03:58:43.026Z,98484.23
2022-12-03T04:01:14.087Z,98479.27
2022-12-03T04:03:42.267Z,98479.47
2022-12-03T04:06:11.489Z,98481.89
2022-12-03T04:08:40.511Z,98484.77
2022-12-03T04:11:26.959Z,98481.95
2022-12-03T04:13:55.187Z,98487.37
2022-12-03T04:16:23.181Z,98489.82
2022-12-03T04:18:51.277Z,98490.02
2022-12-03T04:21:40.449Z,98493.86
2022-12-03T04:24:10.985Z,98493.63
2022-12-03T04:26:57.963Z,98490.32
2022-12-03T04:29:26.031Z,98491.83
2022-12-03T04:32:12.746Z,98487.14
2022-12-03T04:34:59.468Z,98489.09
2022-12-03T04:37:29.970Z,98485.38
2022-12-03T04:39:57.919Z,98478.66
2022-12-03T04:42:25.832Z,98484.30
2022-12-03T04:44:54.052Z,98488.16
2022-12-03T04:47:22.669Z,98492.93
2022-12-03T04:49:51.769Z,98496.66
2022-12-03T04:52:20.916Z,98491.84
2022-12-03T04:54:50.547Z,98495.27
2022-12-03T04:57:18.581Z,98493.46
2022-12-03T04:59:46.994Z,98494.30
2022-12-03T05:02:16.162Z,98498.70
2022-12-03T05:04:44.927Z,98494.02
2022-12-03T05:07:12.886Z,98494.75
2022-12-03T05:09:40.806Z,98494.14
2022-12-03T05:12:08.863Z,98495.45
2022-12-03T05:14:36.853Z,98495.12
2022-12-03T05:17:04.964Z,98500.01
2022-12-03T05:19:52.434Z,98501.75
2022-12-03T05:22:22.452Z,98504.25
2022-12-03T05:24:50.544Z,98505.19
2022-12-03T05:27:23.377Z,98505.73
2022-12-03T05:29:53.039Z,98505.54
2022-12-03T05:32:20.988Z,98509.89
2022-12-03T05:34:49.093Z,98514.48
2022-12-03T05:37:17.005Z,98517.14
2022-12-03T05:39:45.008Z,98517.19
2022-12-03T05:42:31.678Z,98515.67
2022-12-03T05:45:00.396Z,98513.70
2022-12-03T05:47:28.553Z,98517.98
2022-12-03T05:49:56.522Z,98520.75
2022-12-03T05:52:24.565Z,98526.57
2022-12-03T05:54:53.257Z,98527.34
2022-12-03T05:57:21.542Z,98531.63
2022-12-03T05:59:49.808Z,98533.63
2022-12-03T06:02:17.801Z,98536.46
2022-12-03T06:04:46.080Z,98535.73
2022-12-03T06:07:14.567Z,98534.97
2022-12-03T06:09:42.810Z,98529.80
2022-12-03T06:12:11.019Z,98536.72
2022-12-03T06:14:38.999Z,98538.02
2022-12-03T06:17:07.242Z,98538.22
2022-12-03T06:19:35.236Z,98541.11
2022-12-03T06:22:03.434Z,98537.88
2022-12-03T06:24:31.916Z,98538.42
2022-12-03T06:26:59.860Z,98543.23
2022-12-03T06:29:28.138Z,98544.48
2022-12-03T06:31:57.491Z,98547.54
2022-12-03T06:34:25.444Z,98550.67
2022-12-03T06:36:53.390Z,98551.26
2022-12-03T06:39:22.849Z,98550.77
2022-12-03T06:41:50.851Z,98552.41
2022-12-03T06:44:18.911Z,98556.96
2022-12-03T06:46:47.883Z,98559.08
2022-12-03T06:49:15.816Z,98557.17
2022-12-03T06:51:44.075Z,98563.21
2022-12-03T06:54:12.525Z,98561.13
2022-12-03T06:56:45.201Z,98557.72
2022-12-03T06:59:14.371Z,98552.91
2022-12-03T07:01:42.850Z,98554.45
2022-12-03T07:04:11.091Z,98559.70
2022-12-03T07:06:39.071Z,98553.06
2022-12-03T07:09:07.083Z,98551.96
2022-12-03T07:11:40.111Z,98554.34
2022-12-03T07:14:11.063Z,98552.30
2022-12-03T07:16:40.108Z,98550.30
2022-12-03T07:19:08.143Z,98545.70
2022-12-03T07:21:36.619Z,98543.36
2022-12-03T07:24:06.115Z,98545.48
2022-12-03T07:26:35.191Z,98549.55
2022-12-03T07:29:03.467Z,98546.12
2022-12-03T07:31:32.856Z,98551.39
2022-12-03T07:34:02.160Z,98550.02
2022-12-03T07:36:30.410Z,98548.73
2022-12-03T07:38:58.632Z,98551.64
2022-12-03T07:41:26.580Z,98548.42
2022-12-03T07:43:54.616Z,98550.23
2022-12-03T07:46:22.925Z,98549.58
2022-12-03T07:48:51.702Z,98552.20
2022-12-03T07:51:19.739Z,98552.45
2022-12-03T07:53:49.758Z,98555.60
2022-12-03T07:56:17.695Z,98559.52
2022-12-03T07:58:45.656Z,98560.52
2022-12-03T08:01:14.483Z,98561.15
2022-12-03T08:03:44.537Z,98561.41
2022-12-03T08:06:13.091Z,98557.80
2022-12-03T08:08:41.164Z,98555.30
2022-12-03T08:11:14.044Z,98556.29
2022-12-03T08:13:42.539Z,98553.84
2022-12-03T08:16:20.313Z,98557.02
2022-12-03T08:18:50.965Z,98559.63
2022-12-03T08:21:21.372Z,98557.12
2022-12-03T08:23:49.362Z,98554.41
2022-12-03T08:26:28.185Z,98554.67
2022-12-03T08:28:56.188Z,98555.16
2022-12-03T08:31:32.760Z,98556.05
2022-12-03T08:34:19.119Z,98561.17
2022-12-03T08:36:48.110Z,98561.10
2022-12-03T08:39:28.279Z,98564.07
2022-12-03T08:42:27.499Z,98563.91
2022-12-03T08:44:58.192Z,98557.40
2022-12-03T08:47:26.741Z,98559.67
2022-12-03T08:50:00.453Z,98563.41
2022-12-03T08:52:34.013Z,98565.64
2022-12-03T08:55:41.259Z,98566.11
2022-12-03T08:58:33.853Z,98566.53
2022-12-03T09:01:11.088Z,98565.80
2022-12-03T09:03:49.354Z,98561.19
2022-12-03T09:06:18.419Z,98559.40
2022-12-03T09:08:46.832Z,98552.67
2022-12-03T09:11:16.989Z,98549.27
2022-12-03T09:13:46.418Z,98549.72
2022-12-03T09:16:14.972Z,98554.08
2022-12-03T09:18:43.103Z,98553.49
2022-12-03T09:21:11.577Z,98555.55
2022-12-03T09:23:39.809Z,98551.67
2022-12-03T09:26:07.894Z,98541.69
2022-12-03T09:28:36.062Z,98543.86
2022-12-03T09:31:04.255Z,98543.70
2022-12-03T09:33:32.572Z,98547.92
2022-12-03T09:36:00.966Z,98541.80
2022-12-03T09:38:28.927Z,98538.52
2022-12-03T09:40:56.935Z,98539.17
2022-12-03T09:43:49.437Z,98535.25
2022-12-03T09:46:15.063Z,98537.70
2022-12-03T09:48:43.319Z,98535.15
2022-12-03T09:51:11.637Z,98533.58
2022-12-03T09:53:41.983Z,98533.50
2022-12-03T09:56:18.483Z,98534.42
2022-12-03T09:58:47.614Z,98534.38
2022-12-03T10:01:16.716Z,98531.23
2022-12-03T10:03:49.552Z,98531.33
2022-12-03T10:06:23.141Z,98532.53
2022-12-03T10:08:55.507Z,98522.70
2022-12-03T10:11:25.802Z,98523.27
2022-12-03T10:13:56.311Z,98524.92
2022-12-03T10:16:26.721Z,98522.69
2022-12-03T10:18:58.078Z,98518.20
2022-12-03T10:21:38.875Z,98522.48
2022-12-03T10:24:31.568Z,98519.91
2022-12-03T10:27:05.080Z,98521.95
2022-12-03T10:29:36.374Z,98521.15
2022-12-03T10:32:12.896Z,98524.08
2022-12-03T10:34:44.875Z,98523.50
2022-12-03T10:37:21.643Z,98523.61
2022-12-03T10:40:01.950Z,98522.46
2022-12-03T10:42:33.495Z,98526.44
2022-12-03T10:45:22.807Z,98526.66
2022-12-03T10:48:03.470Z,98526.14
2022-12-03T10:50:33.873Z,98526.20
2022-12-03T10:53:03.283Z,98525.51
2022-12-03T10:55:42.043Z,98521.60
2022-12-03T10:58:22.717Z,98522.62
2022-12-03T11:00:55.814Z,98517.94
2022-12-03T11:03:27.025Z,98513.08
2022-12-03T11:05:57.292Z,98517.27
2022-12-03T11:08:32.011Z,98514.96
2022-12-03T11:11:05.093Z,98513.94
2022-12-03T11:13:35.161Z,98506.98
2022-12-03T11:16:06.323Z,98509.73
2022-12-03T11:18:39.737Z,98506.58
2022-12-03T11:21:11.263Z,98505.98
2022-12-03T11:23:51.740Z,98502.23
2022-12-03T11:26:29.873Z,98496.51
2022-12-03T11:29:00.212Z,98497.76
2022-12-03T11:31:40.767Z,98498.86
2022-12-03T11:34:29.405Z,98503.23
2022-12-03T11:37:09.576Z,98503.69
2022-12-03T11:39:50.814Z,98503.67
2022-12-03T11:42:30.985Z,98495.45
2022-12-03T11:45:11.384Z,98498.67
2022-12-03T11:47:58.316Z,98497.40
2022-12-03T11:50:40.195Z,98502.73
2022-12-03T11:53:20.319Z,98505.44
2022-12-03T11:56:06.578Z,98501.30
2022-12-03T11:58:42.371Z,98506.45
2022-12-03T12:01:11.708Z,98507.05
2022-12-03T12:03:47.895Z,98503.52
2022-12-03T12:06:21.887Z,98504.86
2022-12-03T12:08:52.479Z,98504.35
2022-12-03T12:11:21.210Z,98499.11
2022-12-03T12:13:51.209Z,98501.06
2022-12-03T12:16:39.160Z,98500.30
2022-12-03T12:19:35.237Z,98498.39
2022-12-03T12:22:16.131Z,98496.02
2022-12-03T12:24:48.015Z,98493.04
2022-12-03T12:27:31.343Z,98497.48
2022-12-03T12:30:06.807Z,98498.61
2022-12-03T12:33:00.589Z,98497.98
2022-12-03T12:35:32.564Z,98503.45
2022-12-03T12:38:06.642Z,98498.80
2022-12-03T12:40:38.588Z,98504.20
2022-12-03T12:43:29.664Z,98505.38
2022-12-03T12:46:18.689Z,98505.70
2022-12-03T12:48:50.305Z,98504.94
2022-12-03T12:51:18.912Z,98507.92
2022-12-03T12:53:47.997Z,98507.81
2022-12-03T12:56:25.046Z,98505.95
2022-12-03T12:58:53.596Z,98506.46
2022-12-03T13:01:26.262Z,98508.20
2022-12-03T13:03:54.839Z,98504.13
2022-12-03T13:06:32.056Z,98507.04
2022-12-03T13:09:04.456Z,98504.41
2022-12-03T13:11:45.971Z,98503.45
2022-12-03T13:14:20.336Z,98505.85
2022-12-03T13:16:50.946Z,98499.39
2022-12-03T13:19:30.325Z,98501.54
2022-12-03T13:22:13.160Z,98500.00
2022-12-03T13:24:48.517Z,98497.85
2022-12-03T13:27:32.598Z,98501.30
2022-12-03T13:30:15.759Z,98503.86
2022-12-03T13:32:45.371Z,98509.90
2022-12-03T13:35:23.039Z,98508.39
2022-12-03T13:37:51.184Z,98506.66
2022-12-03T13:40:34.875Z,98508.50
2022-12-03T13:43:06.792Z,98505.43
2022-12-03T13:45:43.045Z,98502.48
2022-12-03T13:48:34.285Z,98505.29
2022-12-03T13:51:33.481Z,98507.20
2022-12-03T13:54:02.973Z,98511.14
2022-12-03T13:56:32.999Z,98511.02
2022-12-03T13:59:01.658Z,98510.74
2022-12-03T14:01:30.614Z,98513.88
2022-12-03T14:03:58.900Z,98517.19
2022-12-03T14:06:27.097Z,98524.04
2022-12-03T14:08:55.192Z,98522.96
2022-12-03T14:11:41.565Z,98523.88
2022-12-03T14:14:09.939Z,98528.86
2022-12-03T14:16:38.149Z,98532.38
2022-12-03T14:19:10.491Z,98536.20
2022-12-03T14:21:38.588Z,98535.72
2022-12-03T14:24:06.945Z,98534.61
2022-12-03T14:26:35.262Z,98537.93
2022-12-03T14:29:08.413Z,98539.03
2022-12-03T14:31:37.162Z,98537.98
2022-12-03T14:34:05.551Z,98532.25
2022-12-03T14:36:33.527Z,98531.77
2022-12-03T14:39:01.759Z,98540.52
2022-12-03T14:41:49.610Z,98539.79
2022-12-03T14:44:17.817Z,98540.08
2022-12-03T14:46:47.525Z,98541.19
2022-12-03T14:49:15.876Z,98542.88
2022-12-03T14:51:44.387Z,98545.27
2022-12-03T14:54:12.468Z,98548.08
2022-12-03T14:56:40.705Z,98549.35
2022-12-03T14:59:10.295Z,98554.19
2022-12-03T15:01:38.507Z,98549.83
2022-12-03T15:04:07.668Z,98554.20
2022-12-03T15:06:35.838Z,98559.73
2022-12-03T15:09:04.984Z,98565.61
2022-12-03T15:11:34.334Z,98569.29
2022-12-03T15:14:02.384Z,98560.75
2022-12-03T15:16:30.476Z,98562.08
2022-12-03T15:18:58.828Z,98560.15
2022-12-03T15:21:29.105Z,98563.42
2022-12-03T15:23:59.895Z,98565.31
2022-12-03T15:26:28.668Z,98564.83
2022-12-03T15:28:56.879Z,98570.19
2022-12-03T15:31:24.937Z,98569.80
2022-12-03T15:33:53.062Z,98574.92
2022-12-03T15:36:21.164Z,98574.36
2022-12-03T15:38:49.336Z,98571.94
2022-12-03T15:41:22.139Z,98569.77
2022-12-03T15:43:54.916Z,98572.11
2022-12-03T15:46:23.345Z,98574.37
2022-12-03T15:48:52.070Z,98573.11
2022-12-03T15:51:20.336Z,98577.98
2022-12-03T15:53:51.137Z,98582.72
2022-12-03T15:56:19.478Z,98583.02
2022-12-03T15:58:47.515Z,98585.98
2022-12-03T16:01:18.818Z,98589.35
2022-12-03T16:03:46.869Z,98588.72
2022-12-03T16:06:14.941Z,98591.70
2022-12-03T16:08:43.008Z,98590.66
2022-12-03T16:11:11.777Z,98591.13
2022-12-03T16:13:41.373Z,98591.88
2022-12-03T16:16:09.368Z,98589.95
2022-12-03T16:18:37.526Z,98587.73
2022-12-03T16:21:05.508Z,98585.66
2022-12-03T16:23:34.424Z,98589.16
2022-12-03T16:26:05.123Z,98584.48
2022-12-03T16:28:33.995Z,98580.74
2022-12-03T16:31:02.180Z,98578.49
2022-12-03T16:33:32.283Z,98579.10
2022-12-03T16:36:00.253Z,98579.20
2022-12-03T16:38:30.972Z,98583.52
2022-12-03T16:40:59.070Z,98588.61
2022-12-03T16:43:29.700Z,98589.02
2022-12-03T16:46:20.982Z,98589.77
2022-12-03T16:48:57.891Z,98585.27
2022-12-03T16:51:27.649Z,98595.21
2022-12-03T16:53:55.952Z,98596.43
2022-12-03T16:56:24.936Z,98592.80
2022-12-03T16:58:53.167Z,98595.70
2022-12-03T17:01:23.530Z,98600.88
2022-12-03T17:03:54.086Z,98605.45
2022-12-03T17:06:22.079Z,98604.75
2022-12-03T17:08:50.238Z,98608.36
2022-12-03T17:11:18.476Z,98608.32
2022-12-03T17:13:46.796Z,98608.90
2022-12-03T17:16:15.005Z,98611.20
2022-12-03T17:18:43.240Z,98607.56
2022-12-03T17:21:11.287Z,98611.27
2022-12-03T17:23:40.280Z,98612.10
2022-12-03T17:26:09.270Z,98612.67
2022-12-03T17:28:37.423Z,98613.58
2022-12-03T17:31:05.654Z,98612.02
2022-12-03T17:33:33.673Z,98617.06
2022-12-03T17:36:01.770Z,98613.11
2022-12-03T17:38:38.614Z,98612.90
2022-12-03T17:41:07.578Z,98616.10
2022-12-03T17:43:35.563Z,98613.84
2022-12-03T17:46:05.163Z,98619.74
2022-12-03T17:48:36.484Z,98618.92
2022-12-03T17:51:05.303Z,98621.13
2022-12-03T17:53:36.855Z,98621.25
2022-12-03T17:56:05.307Z,98621.89
2022-12-03T17:58:34.557Z,98622.02
2022-12-03T18:01:03.439Z,98619.04
2022-12-03T18:03:32.789Z,98619.42
2022-12-03T18:06:01.525Z,98614.90
2022-12-03T18:08:31.694Z,98613.89
2022-12-03T18:10:59.704Z,98615.73
2022-12-03T18:13:28.675Z,98614.37
2022-12-03T18:15:58.436Z,98613.73
2022-12-03T18:18:27.115Z,98617.58
2022-12-03T18:20:55.281Z,98618.34
2022-12-03T18:23:23.326Z,98615.34
2022-12-03T18:25:51.755Z,98615.66
2022-12-03T18:28:20.876Z,98615.75
2022-12-03T18:30:52.806Z,98614.21
2022-12-03T18:33:23.459Z,98614.61
2022-12-03T18:35:57.264Z,98612.97
2022-12-03T18:38:29.419Z,98618.08
2022-12-03T18:40:58.972Z,98619.73
2022-12-03T18:43:28.554Z,98618.73
2022-12-03T18:45:57.151Z,98618.16
2022-12-03T18:48:25.848Z,98618.01
2022-12-03T18:50:54.813Z,98621.52
2022-12-03T18:53:23.879Z,98621.52
2022-12-03T18:55:52.628Z,98621.42
2022-12-03T18:58:22.904Z,98621.91
2022-12-03T19:00:53.607Z,98623.64
2022-12-03T19:03:22.108Z,98619.90
2022-12-03T19:05:52.941Z,98622.48
2022-12-03T19:08:21.586Z,98619.65
2022-12-03T19:11:00.248Z,98620.52
2022-12-03T19:13:28.295Z,98615.42
2022-12-03T19:15:56.336Z,98614.70
2022-12-03T19:18:25.655Z,98613.56
2022-12-03T19:20:54.581Z,98618.17
2022-12-03T19:23:22.620Z,98612.69
2022-12-03T19:26:02.809Z,98611.85
2022-12-03T19:28:31.519Z,98611.27
2022-12-03T19:31:02.132Z,98608.75
2022-12-03T19:33:31.435Z,98609.02
2022-12-03T19:36:00.500Z,98608.16
2022-12-03T19:38:30.108Z,98610.10
2022-12-03T19:41:06.603Z,98610.74
2022-12-03T19:43:36.636Z,98613.11
2022-12-03T19:46:10.500Z,98615.33
2022-12-03T19:48:41.586Z,98619.38
2022-12-03T19:51:33.049Z,98621.14
2022-12-03T19:53:59.031Z,98620.75
2022-12-03T19:56:28.292Z,98622.15
2022-12-03T19:58:56.322Z,98622.77
2022-12-03T20:01:27.897Z,98621.84
2022-12-03T20:03:57.794Z,98624.56
2022-12-03T20:06:29.935Z,98628.10
2022-12-03T20:09:05.987Z,98627.06
2022-12-03T20:11:35.593Z,98629.55
2022-12-03T20:14:10.333Z,98628.36
2022-12-03T20:16:38.945Z,98627.21
2022-12-03T20:19:08.419Z,98630.95
2022-12-03T20:21:38.113Z,98628.11
2022-12-03T20:24:08.336Z,98623.20
2022-12-03T20:26:36.316Z,98625.08
2022-12-03T20:29:04.904Z,98621.63
2022-12-03T20:31:33.576Z,98626.70
2022-12-03T20:34:03.574Z,98625.74
2022-12-03T20:36:32.799Z,98627.68
2022-12-03T20:39:04.301Z,98623.88
2022-12-03T20:41:34.834Z,98630.15
2022-12-03T20:44:03.314Z,98626.36
2022-12-03T20:46:32.074Z,98630.27
2022-12-03T20:49:01.036Z,98633.39
2022-12-03T20:51:30.898Z,98633.31
2022-12-03T20:54:00.648Z,98632.89
2022-12-03T20:56:35.983Z,98634.46
2022-12-03T20:59:07.191Z,98631.24
2022-12-03T21:01:36.429Z,98632.53
2022-12-03T21:04:05.870Z,98633.55
2022-12-03T21:06:36.236Z,98634.75
2022-12-03T21:09:06.399Z,98631.64
2022-12-03T21:11:36.093Z,98633.38
2022-12-03T21:14:05.128Z,98632.35
2022-12-03T21:19:24.009Z,98638.41
2022-12-03T21:21:52.462Z,98635.69
2022-12-03T21:24:20.923Z,98632.75
2022-12-03T21:26:54.781Z,98631.46
2022-12-03T21:29:23.282Z,98631.83
2022-12-03T21:31:51.824Z,98637.77
2022-12-03T21:34:20.487Z,98633.61
2022-12-03T21:36:51.624Z,98636.70
2022-12-03T21:39:19.662Z,98638.77
2022-12-03T21:42:22.274Z,98640.52
2022-12-03T21:44:38.642Z,98639.05
2022-12-03T21:47:12.280Z,98640.26
2022-12-03T21:49:42.362Z,98639.66
2022-12-03T21:52:11.028Z,98637.12
2022-12-03T21:54:40.454Z,98637.75
2022-12-03T21:57:08.591Z,98638.33
2022-12-03T21:59:38.295Z,98638.46
2022-12-03T22:02:07.095Z,98639.30
2022-12-03T22:04:35.679Z,98635.35
2022-12-03T22:07:05.975Z,98631.67
2022-12-03T22:09:34.059Z,98640.30
2022-12-03T22:12:02.109Z,98631.14
2022-12-03T22:14:31.736Z,98632.95
2022-12-03T22:17:00.204Z,98627.33
2022-12-03T22:19:28.391Z,98625.06
2022-12-03T22:21:56.344Z,98627.34
2022-12-03T22:24:24.299Z,98627.92
2022-12-03T22:26:55.023Z,98629.08
2022-12-03T22:29:23.017Z,98629.56
2022-12-03T22:31:51.627Z,98629.08
2022-12-03T22:34:20.163Z,98629.77
2022-12-03T22:36:49.497Z,98631.31
2022-12-03T22:39:17.633Z,98628.54
2022-12-03T22:41:45.788Z,98629.18
2022-12-03T22:44:13.818Z,98624.94
2022-12-03T22:46:41.971Z,98625.19
2022-12-03T22:49:11.976Z,98627.41
2022-12-03T22:51:40.038Z,98633.01
2022-12-03T22:54:10.736Z,98627.89
2022-12-03T22:56:38.844Z,98624.35
2022-12-03T22:59:07.308Z,98621.18
2022-12-03T23:01:38.045Z,98621.63
2022-12-03T23:04:08.044Z,98620.55
2022-12-03T23:06:37.464Z,98619.80
2022-12-03T23:09:07.173Z,98616.24
2022-12-03T23:11:35.653Z,98610.52
2022-12-03T23:14:03.749Z,98611.33
2022-12-03T23:16:33.633Z,98610.95
2022-12-03T23:19:02.731Z,98612.06
2022-12-03T23:21:35.118Z,98610.17
2022-12-03T23:24:05.897Z,98612.31
2022-12-03T23:26:36.772Z,98608.92
2022-12-03T23:29:06.120Z,98612.77
2022-12-03T23:31:34.806Z,98610.27
2022-12-03T23:34:03.105Z,98607.38
2022-12-03T23:36:33.437Z,98603.58
2022-12-03T23:39:02.247Z,98600.94
2022-12-03T23:41:30.201Z,98603.41
2022-12-03T23:43:58.239Z,98604.82
2022-12-03T23:46:28.382Z,98604.27
2022-12-03T23:48:59.529Z,98605.27
2022-12-03T23:51:29.223Z,98605.97
2022-12-03T23:53:57.848Z,98607.14
2022-12-03T23:56:30.830Z,98611.06
2022-12-03T23:58:59.221Z,98611.13
